createdAt,value
2023-03-18T00:02:10.588Z,6.55
2023-03-18T00:04:37.051Z,5.78
2023-03-18T00:07:03.748Z,6.65
2023-03-18T00:09:30.539Z,5.45
2023-03-18T00:11:57.013Z,5.00
2023-03-18T00:14:23.781Z,4.88
2023-03-18T00:16:50.519Z,4.47
2023-03-18T00:19:17.487Z,6.20
2023-03-18T00:21:44.302Z,5.95
2023-03-18T00:24:10.929Z,3.75
2023-03-18T00:26:37.384Z,4.68
2023-03-18T00:29:04.387Z,7.18
2023-03-18T00:31:30.916Z,4.78
2023-03-18T00:33:57.636Z,6.68
2023-03-18T00:36:24.250Z,6.25
2023-03-18T00:38:52.661Z,6.75
2023-03-18T00:41:19.210Z,5.70
2023-03-18T00:43:48.209Z,5.60
2023-03-18T00:46:20.898Z,11.23
2023-03-18T00:48:47.730Z,10.43
2023-03-18T00:51:15.398Z,6.60
2023-03-18T00:53:42.399Z,14.73
2023-03-18T00:56:09.106Z,7.35
2023-03-18T00:58:36.099Z,5.55
2023-03-18T01:01:05.674Z,7.82
2023-03-18T01:03:32.430Z,9.60
2023-03-18T01:06:03.160Z,8.00
2023-03-18T01:08:31.153Z,7.13
2023-03-18T01:10:58.188Z,5.43
2023-03-18T01:13:25.213Z,7.27
2023-03-18T01:15:52.799Z,5.28
2023-03-18T01:18:19.493Z,4.05
2023-03-18T01:20:46.192Z,4.20
2023-03-18T01:25:42.247Z,5.63
2023-03-18T01:28:09.108Z,4.55
2023-03-18T01:30:35.727Z,5.18
2023-03-18T01:33:05.328Z,5.20
2023-03-18T01:35:33.873Z,5.63
2023-03-18T01:40:26.806Z,6.10
2023-03-18T01:43:13.631Z,7.15
2023-03-18T01:45:44.501Z,5.32
2023-03-18T01:48:17.254Z,5.50
2023-03-18T01:50:46.575Z,7.80
2023-03-18T01:53:16.672Z,6.88
2023-03-18T01:55:45.809Z,5.45
2023-03-18T01:58:23.989Z,5.22
2023-03-18T02:00:57.288Z,9.07
2023-03-18T02:03:26.051Z,8.68
2023-03-18T02:05:53.565Z,5.63
2023-03-18T02:08:20.457Z,5.35
2023-03-18T02:10:47.763Z,4.22
2023-03-18T02:13:16.178Z,6.07
2023-03-18T02:15:51.702Z,5.85
2023-03-18T02:18:24.031Z,6.10
2023-03-18T02:21:08.236Z,8.55
2023-03-18T02:23:49.807Z,7.57
2023-03-18T02:26:45.120Z,9.65
2023-03-18T02:29:15.338Z,7.53
2023-03-18T02:31:49.923Z,5.70
2023-03-18T02:34:26.422Z,4.25
2023-03-18T02:36:55.482Z,5.63
2023-03-18T02:39:22.255Z,8.98
2023-03-18T02:44:19.529Z,4.07
2023-03-18T02:47:20.581Z,4.10
2023-03-18T02:49:47.068Z,5.65
2023-03-18T02:52:14.682Z,6.13
2023-03-18T02:54:41.253Z,6.72
2023-03-18T02:57:08.098Z,4.30
2023-03-18T02:59:36.366Z,7.38
2023-03-18T03:02:03.395Z,4.25
2023-03-18T03:04:30.057Z,4.10
2023-03-18T03:06:59.018Z,5.05
2023-03-18T03:09:36.244Z,3.03
2023-03-18T03:12:06.317Z,4.65
2023-03-18T03:14:35.010Z,2.70
2023-03-18T03:17:02.330Z,7.20
2023-03-18T03:19:29.813Z,2.25
2023-03-18T03:21:56.488Z,2.55
2023-03-18T03:24:25.193Z,2.35
2023-03-18T03:26:51.845Z,3.88
2023-03-18T03:29:18.524Z,2.63
2023-03-18T03:31:45.131Z,3.67
2023-03-18T03:34:11.750Z,2.88
2023-03-18T03:36:38.285Z,2.47
2023-03-18T03:39:04.785Z,3.63
2023-03-18T03:41:34.854Z,2.08
2023-03-18T03:44:01.589Z,2.42
2023-03-18T03:46:28.329Z,2.67
2023-03-18T03:48:54.920Z,2.85
2023-03-18T03:51:21.443Z,3.33
2023-03-18T03:53:48.086Z,4.20
2023-03-18T03:56:15.262Z,4.63
2023-03-18T03:58:41.813Z,5.03
2023-03-18T04:01:08.417Z,2.35
2023-03-18T04:03:35.136Z,3.90
2023-03-18T04:06:05.635Z,2.40
2023-03-18T04:08:32.966Z,1.70
2023-03-18T04:10:59.677Z,3.72
2023-03-18T04:13:26.781Z,2.22
2023-03-18T04:15:54.029Z,2.25
2023-03-18T04:18:21.120Z,2.95
2023-03-18T04:20:48.044Z,7.00
2023-03-18T04:23:37.783Z,5.90
2023-03-18T04:26:04.734Z,2.58
2023-03-18T04:28:32.984Z,2.88
2023-03-18T04:30:59.955Z,2.80
2023-03-18T04:33:26.718Z,2.33
2023-03-18T04:35:53.673Z,5.70
2023-03-18T04:38:20.233Z,2.70
2023-03-18T04:40:50.064Z,1.58
2023-03-18T04:43:17.133Z,4.00
2023-03-18T04:45:45.520Z,1.70
2023-03-18T04:48:13.364Z,3.78
2023-03-18T04:50:41.764Z,1.60
2023-03-18T04:53:13.570Z,1.80
2023-03-18T04:55:40.446Z,2.30
2023-03-18T04:58:09.965Z,2.58
2023-03-18T05:00:41.562Z,1.95
2023-03-18T05:03:29.332Z,2.10
2023-03-18T05:05:56.258Z,2.80
2023-03-18T05:08:31.690Z,1.45
2023-03-18T05:11:00.297Z,1.27
2023-03-18T05:13:27.186Z,1.25
2023-03-18T05:15:53.708Z,2.63
2023-03-18T05:18:22.240Z,3.53
2023-03-18T05:20:51.583Z,2.83
2023-03-18T05:23:19.100Z,2.53
2023-03-18T05:25:53.196Z,2.05
2023-03-18T05:28:22.081Z,3.67
2023-03-18T05:31:07.240Z,1.95
2023-03-18T05:33:37.172Z,3.33
2023-03-18T05:36:04.978Z,3.35
2023-03-18T05:38:36.476Z,3.63
2023-03-18T05:41:03.273Z,2.13
2023-03-18T05:43:37.077Z,2.03
2023-03-18T05:46:03.772Z,1.80
2023-03-18T05:48:55.196Z,5.63
2023-03-18T05:51:24.845Z,2.08
2023-03-18T05:53:51.703Z,3.90
2023-03-18T05:56:25.475Z,1.95
2023-03-18T05:58:56.517Z,1.92
2023-03-18T06:01:29.729Z,4.03
2023-03-18T06:03:56.362Z,3.53
2023-03-18T06:06:22.904Z,1.55
2023-03-18T06:08:49.534Z,1.42
2023-03-18T06:11:16.164Z,4.35
2023-03-18T06:13:42.892Z,3.25
2023-03-18T06:16:09.762Z,2.97
2023-03-18T06:18:36.537Z,2.42
2023-03-18T06:21:04.382Z,5.78
2023-03-18T06:23:30.969Z,5.97
2023-03-18T06:25:57.539Z,4.15
2023-03-18T06:28:31.295Z,3.17
2023-03-18T06:31:01.455Z,3.38
2023-03-18T06:33:28.537Z,2.60
2023-03-18T06:35:55.530Z,4.60
2023-03-18T06:38:22.596Z,3.40
2023-03-18T06:40:49.582Z,3.20
2023-03-18T06:43:16.163Z,2.92
2023-03-18T06:48:10.924Z,1.98
2023-03-18T06:50:41.254Z,2.75
2023-03-18T06:53:13.895Z,4.13
2023-03-18T06:55:41.927Z,2.08
2023-03-18T06:58:08.552Z,2.53
2023-03-18T07:00:46.228Z,3.17
2023-03-18T07:03:18.515Z,5.10
2023-03-18T07:05:45.090Z,2.38
2023-03-18T07:08:11.768Z,2.33
2023-03-18T07:10:38.392Z,3.72
2023-03-18T07:13:10.674Z,1.73
2023-03-18T07:15:40.838Z,3.33
2023-03-18T07:18:07.539Z,7.18
2023-03-18T07:20:34.147Z,3.20
2023-03-18T07:23:00.742Z,6.60
2023-03-18T07:25:28.037Z,1.17
2023-03-18T07:27:54.638Z,5.43
2023-03-18T07:30:21.195Z,2.25
2023-03-18T07:32:47.812Z,6.47
2023-03-18T07:35:15.548Z,2.17
2023-03-18T07:37:42.274Z,1.30
2023-03-18T07:40:10.048Z,2.70
2023-03-18T07:42:36.598Z,2.53
2023-03-18T07:45:03.248Z,1.65
2023-03-18T07:47:29.783Z,4.55
2023-03-18T07:49:56.335Z,2.85
2023-03-18T07:52:22.938Z,4.40
2023-03-18T07:54:49.496Z,8.77
2023-03-18T07:57:16.024Z,2.10
2023-03-18T07:59:42.548Z,2.28
2023-03-18T08:02:12.818Z,1.90
2023-03-18T08:04:39.306Z,4.53
2023-03-18T08:07:06.070Z,9.35
2023-03-18T08:09:32.655Z,4.75
2023-03-18T08:11:59.124Z,3.20
2023-03-18T08:14:25.896Z,4.38
2023-03-18T08:16:52.392Z,3.75
2023-03-18T08:19:18.850Z,2.20
2023-03-18T08:21:45.343Z,5.63
2023-03-18T08:24:11.976Z,4.07
2023-03-18T08:26:38.518Z,3.63
2023-03-18T08:29:05.215Z,2.08
2023-03-18T08:31:31.974Z,2.35
2023-03-18T08:33:58.810Z,1.15
2023-03-18T08:36:25.555Z,2.78
2023-03-18T08:38:52.060Z,2.17
2023-03-18T08:41:18.516Z,2.25
2023-03-18T08:43:45.074Z,1.65
2023-03-18T08:46:11.909Z,2.42
2023-03-18T08:48:38.578Z,6.78
2023-03-18T08:51:06.522Z,1.70
2023-03-18T08:53:32.995Z,6.55
2023-03-18T08:56:01.343Z,5.45
2023-03-18T08:58:29.482Z,5.05
2023-03-18T09:00:56.184Z,4.18
2023-03-18T09:03:22.799Z,4.55
2023-03-18T09:05:49.307Z,1.73
2023-03-18T09:08:15.886Z,3.55
2023-03-18T09:10:45.660Z,3.83
2023-03-18T09:13:12.231Z,2.97
2023-03-18T09:15:38.964Z,2.28
2023-03-18T09:18:11.532Z,1.80
2023-03-18T09:20:39.762Z,1.58
2023-03-18T09:23:07.307Z,2.30
2023-03-18T09:25:34.121Z,2.78
2023-03-18T09:28:01.401Z,2.83
2023-03-18T09:30:28.437Z,3.65
2023-03-18T09:32:55.029Z,5.22
2023-03-18T09:35:21.599Z,6.32
2023-03-18T09:37:48.074Z,6.13
2023-03-18T09:40:27.736Z,3.20
2023-03-18T09:43:19.009Z,4.18
2023-03-18T09:46:03.436Z,3.05
2023-03-18T09:48:56.648Z,5.45
2023-03-18T09:51:53.173Z,4.55
2023-03-18T09:54:31.456Z,6.20
2023-03-18T09:56:57.998Z,3.97
2023-03-18T09:59:30.741Z,3.15
2023-03-18T10:01:59.126Z,3.78
2023-03-18T10:04:28.815Z,6.18
2023-03-18T10:07:11.580Z,3.28
2023-03-18T10:09:54.117Z,2.28
2023-03-18T10:12:30.474Z,6.85
2023-03-18T10:15:17.590Z,2.83
2023-03-18T10:18:02.580Z,3.45
2023-03-18T10:20:52.421Z,4.10
2023-03-18T10:23:30.779Z,6.00
2023-03-18T10:26:16.535Z,2.15
2023-03-18T10:29:06.968Z,7.22
2023-03-18T10:31:47.750Z,4.05
2023-03-18T10:34:25.275Z,3.47
2023-03-18T10:37:17.154Z,4.57
2023-03-18T10:39:43.832Z,7.80
2023-03-18T10:42:23.837Z,3.63
2023-03-18T10:44:51.761Z,6.10
2023-03-18T10:47:36.875Z,3.88
2023-03-18T10:50:04.790Z,5.82
2023-03-18T10:52:37.909Z,8.75
2023-03-18T10:55:11.477Z,2.22
2023-03-18T10:57:38.103Z,4.53
2023-03-18T11:00:05.599Z,4.13
2023-03-18T11:02:38.822Z,2.30
2023-03-18T11:05:23.363Z,3.90
2023-03-18T11:07:58.899Z,3.08
2023-03-18T11:10:28.631Z,3.67
2023-03-18T11:12:58.623Z,1.63
2023-03-18T11:15:25.181Z,2.78
2023-03-18T11:17:52.656Z,5.50
2023-03-18T11:20:32.249Z,2.22
2023-03-18T11:23:06.307Z,3.50
2023-03-18T11:25:32.894Z,2.42
2023-03-18T11:28:04.628Z,3.67
2023-03-18T11:30:45.022Z,2.30
2023-03-18T11:33:11.830Z,5.63
2023-03-18T11:35:53.233Z,5.68
2023-03-18T11:38:29.026Z,2.53
2023-03-18T11:41:13.646Z,4.70
2023-03-18T11:43:55.689Z,2.85
2023-03-18T11:46:30.212Z,8.25
2023-03-18T11:49:00.054Z,3.25
2023-03-18T11:51:42.805Z,2.63
2023-03-18T11:54:29.633Z,5.45
2023-03-18T11:57:02.837Z,4.22
2023-03-18T11:59:47.733Z,3.78
2023-03-18T12:02:48.509Z,2.90
2023-03-18T12:05:42.447Z,5.80
2023-03-18T12:08:22.054Z,2.20
2023-03-18T12:11:03.777Z,1.55
2023-03-18T12:14:01.855Z,2.00
2023-03-18T12:16:44.004Z,3.60
2023-03-18T12:19:48.227Z,11.15
2023-03-18T12:22:50.048Z,2.92
2023-03-18T12:25:34.567Z,13.38
2023-03-18T12:28:01.140Z,3.20
2023-03-18T12:30:36.355Z,4.55
2023-03-18T12:33:30.096Z,3.45
2023-03-18T12:36:04.559Z,4.97
2023-03-18T12:39:01.953Z,6.82
2023-03-18T12:41:44.881Z,3.83
2023-03-18T12:44:40.357Z,10.90
2023-03-18T12:47:16.122Z,1.88
2023-03-18T12:49:46.575Z,10.38
2023-03-18T12:52:19.141Z,3.53
2023-03-18T12:54:55.907Z,4.07
2023-03-18T12:57:48.413Z,4.68
2023-03-18T13:00:39.832Z,3.88
2023-03-18T13:03:35.148Z,2.28
2023-03-18T13:06:10.292Z,7.40
2023-03-18T13:08:59.442Z,8.32
2023-03-18T13:11:34.205Z,5.40
2023-03-18T13:14:07.223Z,6.75
2023-03-18T13:16:36.670Z,3.20
2023-03-18T13:19:04.706Z,4.32
2023-03-18T13:21:36.018Z,3.60
2023-03-18T13:24:23.711Z,6.25
2023-03-18T13:29:56.894Z,2.58
2023-03-18T13:32:40.716Z,2.75
2023-03-18T13:35:21.965Z,3.97
2023-03-18T13:38:39.054Z,8.02
2023-03-18T13:41:08.522Z,3.83
2023-03-18T13:43:39.489Z,3.78
2023-03-18T13:46:19.961Z,3.47
2023-03-18T13:48:46.942Z,4.68
2023-03-18T13:51:39.484Z,7.53
2023-03-18T13:54:14.920Z,4.90
2023-03-18T13:56:41.458Z,2.83
2023-03-18T13:59:33.587Z,5.93
2023-03-18T14:02:37.628Z,4.45
2023-03-18T14:05:35.092Z,3.83
2023-03-18T14:10:32.578Z,1.95
2023-03-18T14:13:28.156Z,5.05
2023-03-18T14:15:57.420Z,2.70
2023-03-18T14:18:27.913Z,4.80
2023-03-18T14:21:00.222Z,4.22
2023-03-18T14:23:29.549Z,5.47
2023-03-18T14:26:07.575Z,6.22
2023-03-18T14:28:45.363Z,5.45
2023-03-18T14:31:20.295Z,5.05
2023-03-18T14:34:00.196Z,4.68
2023-03-18T14:36:39.683Z,6.90
2023-03-18T14:39:07.427Z,2.67
2023-03-18T14:41:41.269Z,4.10
2023-03-18T14:44:29.273Z,3.33
2023-03-18T14:46:59.811Z,8.02
2023-03-18T14:49:51.216Z,4.80
2023-03-18T14:52:38.769Z,6.28
2023-03-18T14:55:18.124Z,3.25
2023-03-18T14:57:44.946Z,9.13
2023-03-18T15:00:16.104Z,5.22
2023-03-18T15:02:44.435Z,2.45
2023-03-18T15:05:16.318Z,5.78
2023-03-18T15:07:43.817Z,7.30
2023-03-18T15:10:14.177Z,3.63
2023-03-18T15:12:40.973Z,4.10
2023-03-18T15:15:15.322Z,2.58
2023-03-18T15:17:47.684Z,3.75
2023-03-18T15:20:15.184Z,3.85
2023-03-18T15:22:42.427Z,5.97
2023-03-18T15:25:18.469Z,3.97
2023-03-18T15:27:45.019Z,5.20
2023-03-18T15:30:28.872Z,10.30
2023-03-18T15:33:02.976Z,5.40
2023-03-18T15:35:30.558Z,5.68
2023-03-18T15:38:09.368Z,6.72
2023-03-18T15:40:49.358Z,5.07
2023-03-18T15:43:28.724Z,3.65
2023-03-18T15:46:00.769Z,4.10
2023-03-18T15:48:39.586Z,4.80
2023-03-18T15:51:23.119Z,4.85
2023-03-18T15:53:53.561Z,5.03
2023-03-18T15:56:27.174Z,3.70
2023-03-18T15:58:58.569Z,2.90
2023-03-18T16:01:25.129Z,7.20
2023-03-18T16:03:51.663Z,4.13
2023-03-18T16:06:18.194Z,4.75
2023-03-18T16:08:44.703Z,4.70
2023-03-18T16:11:13.829Z,4.40
2023-03-18T16:13:40.649Z,4.15
2023-03-18T16:16:15.878Z,4.63
2023-03-18T16:18:42.544Z,5.22
2023-03-18T16:21:13.052Z,2.65
2023-03-18T16:23:39.576Z,7.88
2023-03-18T16:26:11.799Z,3.92
2023-03-18T16:28:38.288Z,3.15
2023-03-18T16:31:04.889Z,4.30
2023-03-18T16:33:32.499Z,14.50
2023-03-18T16:36:01.485Z,3.78
2023-03-18T16:38:38.318Z,1.40
2023-03-18T16:41:05.102Z,4.53
2023-03-18T16:43:32.114Z,3.67
2023-03-18T16:46:01.259Z,2.67
2023-03-18T16:48:28.024Z,2.55
2023-03-18T16:50:56.838Z,3.13
2023-03-18T16:53:26.605Z,1.63
2023-03-18T16:55:59.319Z,4.95
2023-03-18T16:58:30.297Z,3.58
2023-03-18T17:00:56.899Z,2.30
2023-03-18T17:03:23.459Z,5.45
2023-03-18T17:05:50.715Z,2.80
2023-03-18T17:08:21.033Z,2.97
2023-03-18T17:10:50.696Z,2.78
2023-03-18T17:13:21.282Z,1.27
2023-03-18T17:15:47.780Z,1.75
2023-03-18T17:18:17.124Z,3.97
2023-03-18T17:20:44.716Z,3.47
2023-03-18T17:23:16.461Z,10.38
2023-03-18T17:25:47.402Z,3.92
2023-03-18T17:28:23.873Z,3.15
2023-03-18T17:30:50.817Z,3.83
2023-03-18T17:33:22.274Z,3.63
2023-03-18T17:35:48.788Z,2.15
2023-03-18T17:38:15.766Z,1.98
2023-03-18T17:40:42.532Z,2.28
2023-03-18T17:43:17.807Z,1.98
2023-03-18T17:45:44.621Z,5.43
2023-03-18T17:48:17.490Z,2.45
2023-03-18T17:50:44.142Z,2.58
2023-03-18T17:53:26.825Z,7.22
2023-03-18T17:55:54.214Z,5.85
2023-03-18T17:58:22.778Z,6.35
2023-03-18T18:00:50.060Z,3.33
2023-03-18T18:03:25.672Z,3.97
2023-03-18T18:05:54.173Z,5.05
2023-03-18T18:08:22.302Z,3.67
2023-03-18T18:13:18.630Z,2.78
2023-03-18T18:15:46.703Z,3.13
2023-03-18T18:20:40.630Z,2.17
2023-03-18T18:23:07.128Z,5.28
2023-03-18T18:25:33.916Z,1.92
2023-03-18T18:28:00.640Z,2.38
2023-03-18T18:30:27.187Z,5.57
2023-03-18T18:32:54.161Z,5.93
2023-03-18T18:35:22.627Z,3.60
2023-03-18T18:37:49.287Z,4.85
2023-03-18T18:40:17.084Z,3.38
2023-03-18T18:42:43.959Z,1.98
2023-03-18T18:45:17.326Z,1.45
2023-03-18T18:47:43.928Z,2.78
2023-03-18T18:50:20.936Z,2.83
2023-03-18T18:52:47.590Z,3.58
2023-03-18T18:55:14.205Z,4.30
2023-03-18T18:57:41.994Z,2.20
2023-03-18T19:00:22.370Z,4.05
2023-03-18T19:02:50.990Z,2.95
2023-03-18T19:05:17.809Z,3.83
2023-03-18T19:07:45.080Z,12.80
2023-03-18T19:10:15.182Z,30.92
2023-03-18T19:12:42.736Z,20.23
2023-03-18T19:15:10.316Z,21.23
2023-03-18T19:17:37.912Z,13.05
2023-03-18T19:20:28.491Z,20.65
2023-03-18T19:22:55.091Z,30.63
2023-03-18T19:25:21.760Z,19.42
2023-03-18T19:27:48.269Z,19.13
2023-03-18T19:30:23.884Z,12.25
2023-03-18T19:32:50.973Z,9.38
2023-03-18T19:35:17.648Z,11.43
2023-03-18T19:37:47.319Z,11.00
2023-03-18T19:40:23.802Z,6.57
2023-03-18T19:42:50.387Z,6.30
2023-03-18T19:45:17.117Z,7.22
2023-03-18T19:47:43.866Z,5.13
2023-03-18T19:50:21.079Z,5.70
2023-03-18T19:52:48.072Z,3.50
2023-03-18T19:55:15.676Z,3.40
2023-03-18T19:57:47.358Z,6.22
2023-03-18T20:00:19.666Z,5.47
2023-03-18T20:02:46.208Z,6.55
2023-03-18T20:05:21.490Z,4.15
2023-03-18T20:07:48.458Z,5.07
2023-03-18T20:10:15.278Z,8.35
2023-03-18T20:12:49.899Z,11.45
2023-03-18T20:15:19.549Z,3.67
2023-03-18T20:17:50.444Z,5.30
2023-03-18T20:20:18.396Z,10.65
2023-03-18T20:22:52.067Z,8.45
2023-03-18T20:25:30.403Z,8.40
2023-03-18T20:27:57.121Z,21.20
2023-03-18T20:30:27.896Z,4.97
2023-03-18T20:32:54.909Z,8.18
2023-03-18T20:35:23.337Z,6.60
2023-03-18T20:37:50.105Z,5.45
2023-03-18T20:40:23.701Z,5.03
2023-03-18T20:42:51.488Z,10.35
2023-03-18T20:45:18.563Z,8.30
2023-03-18T20:47:48.828Z,4.00
2023-03-18T20:50:20.519Z,6.40
2023-03-18T20:52:48.308Z,4.05
2023-03-18T20:55:24.855Z,8.68
2023-03-18T20:57:52.729Z,6.47
2023-03-18T21:00:22.639Z,4.70
2023-03-18T21:02:51.441Z,6.43
2023-03-18T21:05:19.207Z,6.85
2023-03-18T21:07:46.392Z,4.95
2023-03-18T21:10:22.400Z,8.15
2023-03-18T21:12:49.738Z,13.32
2023-03-18T21:15:25.648Z,11.93
2023-03-18T21:17:52.461Z,10.85
2023-03-18T21:20:29.296Z,12.07
2023-03-18T21:22:55.928Z,15.75
2023-03-18T21:25:24.577Z,21.50
2023-03-18T21:27:51.884Z,28.70
2023-03-18T21:30:20.386Z,30.33
2023-03-18T21:32:47.124Z,18.60
2023-03-18T21:35:19.925Z,16.30
2023-03-18T21:37:46.585Z,15.90
2023-03-18T21:40:15.426Z,14.65
2023-03-18T21:42:42.246Z,9.77
2023-03-18T21:45:12.111Z,9.23
2023-03-18T21:47:38.806Z,9.18
2023-03-18T21:50:06.166Z,7.30
2023-03-18T21:52:36.831Z,8.68
2023-03-18T21:55:05.722Z,5.68
2023-03-18T21:57:32.266Z,7.15
2023-03-18T21:59:58.909Z,6.68
2023-03-18T22:02:27.485Z,5.00
2023-03-18T22:04:55.132Z,6.13
2023-03-18T22:07:23.221Z,5.88
2023-03-18T22:12:26.967Z,8.63
2023-03-18T22:14:54.372Z,8.80
2023-03-18T22:17:39.144Z,6.33
2023-03-18T22:20:06.269Z,6.43
2023-03-18T22:22:36.396Z,4.22
2023-03-18T22:25:03.264Z,4.63
2023-03-18T22:27:31.507Z,9.68
2023-03-18T22:32:37.552Z,6.55
2023-03-18T22:35:07.389Z,12.98
2023-03-18T22:37:33.968Z,13.05
2023-03-18T22:40:01.293Z,9.93
2023-03-18T22:42:28.106Z,10.13
2023-03-18T22:44:54.696Z,5.95
2023-03-18T22:47:23.782Z,4.95
2023-03-18T22:49:51.242Z,4.68
2023-03-18T22:52:29.018Z,4.20
2023-03-18T22:55:10.656Z,6.32
2023-03-18T22:57:37.168Z,11.20
2023-03-18T23:00:10.863Z,6.75
2023-03-18T23:02:37.445Z,4.88
2023-03-18T23:05:04.267Z,6.15
2023-03-18T23:07:32.780Z,4.45
2023-03-18T23:10:01.372Z,4.32
2023-03-18T23:12:30.265Z,6.38
2023-03-18T23:14:56.955Z,7.43
2023-03-18T23:17:26.187Z,4.50
2023-03-18T23:19:53.767Z,6.55
2023-03-18T23:22:31.956Z,8.55
2023-03-18T23:24:58.861Z,10.02
2023-03-18T23:27:26.945Z,10.70
2023-03-18T23:29:54.792Z,5.82
2023-03-18T23:32:22.713Z,10.25
2023-03-18T23:37:47.482Z,7.32
2023-03-18T23:40:14.301Z,12.25
2023-03-18T23:42:40.952Z,7.30
2023-03-18T23:45:08.591Z,6.22
2023-03-18T23:47:35.206Z,17.42
2023-03-18T23:50:01.724Z,5.25
2023-03-18T23:52:28.250Z,7.60
2023-03-18T23:54:54.817Z,11.98
2023-03-18T23:57:21.285Z,6.25
2023-03-18T23:59:47.753Z,10.52
